Time;durP1;ratioP1;P1;durP2;ratioP2;P2;SDS_P1;SDS_P2;PMS_P1;PMS_P2;Temp;Humidity;BMP_temperature;BMP_pressure;BME280_temperature;BME280_humidity;BME280_pressure;Samples;Min_cycle;Max_cycle;Signal;HPM_P1;HPM_P2
2021/11/14 00:02:22;;;;;;;17.95;5.30;;;;;;;14.51;56.61;100206.38;4914989;28;20040;-68
2021/11/14 00:04:47;;;;;;;19.90;4.97;;;;;;;14.49;57.13;100208.50;4937797;28;20035;-68
2021/11/14 00:07:17;;;;;;;15.20;4.53;;;;;;;14.41;57.57;100211.69;4939756;28;20099;-68
2021/11/14 00:09:43;;;;;;;16.25;4.32;;;;;;;14.55;57.03;100218.31;4929237;28;20501;-68
2021/11/14 00:12:10;;;;;;;13.75;4.10;;;;;;;14.73;56.71;100210.91;4914780;28;20028;-68
2021/11/14 00:14:35;;;;;;;14.38;4.82;;;;;;;14.67;56.64;100214.63;4940319;28;20027;-68
2021/11/14 00:17:02;;;;;;;15.20;4.15;;;;;;;14.58;56.65;100206.97;4937488;28;20553;-68
2021/11/14 00:19:27;;;;;;;15.82;4.50;;;;;;;14.64;56.77;100221.41;4935143;28;20043;-68
2021/11/14 00:21:53;;;;;;;23.42;4.97;;;;;;;14.46;57.18;100217.16;4922590;28;20043;-68
2021/11/14 00:24:18;;;;;;;13.98;4.50;;;;;;;14.40;57.47;100220.91;4936134;28;20043;-68
2021/11/14 00:26:45;;;;;;;15.35;4.90;;;;;;;14.80;56.47;100225.06;4947162;28;20038;-68
2021/11/14 00:29:11;;;;;;;11.68;4.47;;;;;;;14.69;56.33;100216.03;4928593;28;20067;-68
2021/11/14 00:31:37;;;;;;;12.63;4.47;;;;;;;14.82;56.01;100219.41;4937807;28;20039;-68
2021/11/14 00:34:05;;;;;;;15.13;4.65;;;;;;;14.80;55.97;100219.66;4913194;28;20120;-69
2021/11/14 00:36:36;;;;;;;13.85;4.45;;;;;;;14.33;56.87;100218.41;4927475;28;20081;-68
2021/11/14 00:39:07;;;;;;;13.80;5.25;;;;;;;14.74;55.49;100223.41;4942762;28;20035;-68
2021/11/14 00:41:33;;;;;;;12.57;4.82;;;;;;;14.75;55.92;100225.03;4929875;28;20043;-69
2021/11/14 00:43:58;;;;;;;17.73;4.90;;;;;;;14.71;55.86;100221.19;4941416;28;20054;-69
2021/11/14 00:46:24;;;;;;;18.85;4.60;;;;;;;14.68;56.25;100224.41;4937943;28;20047;-68
2021/11/14 00:48:51;;;;;;;11.55;3.80;;;;;;;14.45;56.49;100220.94;4930814;28;20547;-69
2021/11/14 00:51:23;;;;;;;18.65;4.07;;;;;;;14.33;56.66;100226.53;4933697;28;20110;-70
2021/11/14 00:53:49;;;;;;;12.57;4.03;;;;;;;14.50;56.43;100223.69;4929370;28;20055;-69
2021/11/14 00:56:14;;;;;;;8.40;3.42;;;;;;;14.51;56.37;100228.03;4942659;28;20063;-69
2021/11/14 00:58:40;;;;;;;11.15;3.47;;;;;;;14.42;56.56;100222.28;4936104;28;20548;-70
2021/11/14 01:01:05;;;;;;;11.23;3.53;;;;;;;14.29;56.89;100225.41;4932252;28;20070;-69
2021/11/14 01:03:31;;;;;;;14.98;4.20;;;;;;;14.53;56.51;100227.81;4934805;28;20050;-69
2021/11/14 01:05:57;;;;;;;12.10;4.38;;;;;;;14.47;56.46;100227.75;4942759;28;20038;-70
2021/11/14 01:08:23;;;;;;;13.00;4.03;;;;;;;14.38;56.88;100233.88;4937198;28;20043;-68
2021/11/14 01:10:52;;;;;;;13.48;4.10;;;;;;;14.42;57.05;100232.28;4921370;28;20031;-67
2021/11/14 01:13:18;;;;;;;12.90;3.55;;;;;;;14.31;57.05;100236.81;4934322;28;20087;-69
2021/11/14 01:15:45;;;;;;;8.80;3.28;;;;;;;14.45;56.44;100245.34;4950252;28;20032;-68
2021/11/14 01:18:13;;;;;;;14.10;4.25;;;;;;;14.25;56.99;100249.47;4947179;28;20074;-67
2021/11/14 01:20:42;;;;;;;12.52;4.18;;;;;;;13.75;58.00;100238.63;4968077;28;20034;-68
2021/11/14 01:23:11;;;;;;;11.50;4.00;;;;;;;14.09;57.41;100242.25;4927242;28;20114;-69
2021/11/14 01:25:38;;;;;;;15.25;4.00;;;;;;;14.00;57.65;100233.75;4943090;28;20098;-70
2021/11/14 01:28:05;;;;;;;15.25;3.75;;;;;;;14.18;56.93;100243.44;4941656;28;20042;-69
2021/11/14 01:30:34;;;;;;;18.83;4.00;;;;;;;14.23;56.74;100239.97;4939800;28;20770;-68
2021/11/14 01:33:03;;;;;;;15.55;3.50;;;;;;;14.13;56.95;100238.78;4916180;28;20052;-68
2021/11/14 01:35:29;;;;;;;15.30;3.75;;;;;;;14.13;57.07;100246.09;4936959;28;20386;-68
2021/11/14 01:37:56;;;;;;;14.75;3.80;;;;;;;14.26;56.92;100242.97;4940425;28;20436;-68
2021/11/14 01:40:31;;;;;;;10.65;3.47;;;;;;;13.84;58.06;100252.53;4947644;28;20036;-68
2021/11/14 01:42:58;;;;;;;9.43;3.88;;;;;;;13.83;58.10;100252.78;4919733;28;20039;-69
2021/11/14 01:45:24;;;;;;;9.05;3.67;;;;;;;14.02;58.02;100258.69;4942531;28;20043;-69
2021/11/14 01:47:51;;;;;;;15.85;3.90;;;;;;;13.80;58.51;100253.28;4975997;28;20111;-69
2021/11/14 01:50:18;;;;;;;13.35;4.45;;;;;;;14.15;58.03;100252.91;4929792;28;20903;-69
2021/11/14 01:52:47;;;;;;;17.10;4.55;;;;;;;13.87;58.85;100262.84;4918790;28;20035;-69
2021/11/14 01:55:17;;;;;;;14.43;4.40;;;;;;;13.29;60.42;100263.13;4947378;28;20481;-69
2021/11/14 01:57:43;;;;;;;13.63;4.68;;;;;;;13.68;59.73;100261.50;4938706;28;20035;-70
2021/11/14 02:00:13;;;;;;;16.95;5.28;;;;;;;13.75;59.46;100264.84;4939205;28;20118;-69
2021/11/14 02:02:39;;;;;;;15.35;4.10;;;;;;;13.69;59.30;100260.44;4937897;28;20043;-70
2021/11/14 02:05:08;;;;;;;13.32;4.20;;;;;;;13.87;58.83;100257.44;4941783;28;20050;-69
2021/11/14 02:07:33;;;;;;;13.35;4.63;;;;;;;13.47;60.44;100266.66;4938056;28;20640;-70
2021/11/14 02:09:59;;;;;;;16.75;5.22;;;;;;;13.16;61.49;100269.69;4929688;28;20143;-69
2021/11/14 02:12:24;;;;;;;14.10;4.82;;;;;;;13.43;60.84;100258.22;4912091;28;20027;-70
2021/11/14 02:14:52;;;;;;;16.38;5.00;;;;;;;13.37;60.70;100278.13;4919512;28;20110;-70
2021/11/14 02:17:18;;;;;;;12.82;4.45;;;;;;;13.66;60.11;100282.59;4930177;28;20027;-69
2021/11/14 02:19:50;;;;;;;13.98;5.03;;;;;;;13.15;61.82;100283.47;4935708;28;20375;-70
2021/11/14 02:22:16;;;;;;;14.20;4.65;;;;;;;13.29;61.11;100284.75;4930473;28;20040;-69
2021/11/14 02:24:43;;;;;;;16.77;4.70;;;;;;;13.15;62.06;100292.38;4937365;28;20134;-69
2021/11/14 02:27:09;;;;;;;18.98;3.97;;;;;;;13.09;61.93;100293.38;4937751;28;20110;-69
2021/11/14 02:29:34;;;;;;;20.10;4.35;;;;;;;13.49;60.95;100290.78;4936634;28;20499;-69
2021/11/14 02:32:00;;;;;;;13.25;4.43;;;;;;;13.44;60.86;100302.31;4925914;28;20046;-70
2021/11/14 02:34:25;;;;;;;17.55;4.25;;;;;;;13.29;61.19;100298.28;4939822;28;20038;-70
2021/11/14 02:36:51;;;;;;;18.70;4.68;;;;;;;13.34;61.31;100297.56;4935990;28;20405;-70
2021/11/14 02:39:18;;;;;;;20.77;4.80;;;;;;;13.19;61.74;100306.25;4940821;28;20043;-70
2021/11/14 02:41:44;;;;;;;14.57;4.40;;;;;;;13.53;61.15;100295.41;4933509;28;20059;-70
2021/11/14 02:44:10;;;;;;;22.35;5.15;;;;;;;13.35;61.76;100301.06;4932564;28;20031;-71
2021/11/14 02:46:36;;;;;;;19.95;5.18;;;;;;;13.34;61.45;100300.28;4932907;28;20050;-70
2021/11/14 02:49:02;;;;;;;23.58;5.25;;;;;;;12.97;62.18;100298.03;4954454;28;20035;-70
2021/11/14 02:51:30;;;;;;;12.98;5.00;;;;;;;13.57;60.79;100295.75;4932170;28;20122;-70
2021/11/14 02:53:57;;;;;;;17.95;5.50;;;;;;;13.15;62.11;100302.41;4929198;28;20059;-70
2021/11/14 02:56:23;;;;;;;18.55;5.40;;;;;;;13.29;61.87;100300.19;4967183;28;20113;-71
2021/11/14 02:58:48;;;;;;;13.30;5.65;;;;;;;13.07;62.55;100306.31;4930943;28;20110;-70
2021/11/14 03:01:19;;;;;;;22.73;6.18;;;;;;;13.34;61.90;100311.09;4938020;28;20039;-70
2021/11/14 03:03:47;;;;;;;17.50;5.32;;;;;;;13.28;61.87;100309.38;4938093;28;20028;-70
2021/11/14 03:06:14;;;;;;;14.98;5.45;;;;;;;13.25;61.87;100315.25;4955148;28;20031;-69
2021/11/14 03:08:40;;;;;;;20.77;6.60;;;;;;;13.36;61.44;100313.53;4934694;28;20028;-70
2021/11/14 03:11:06;;;;;;;18.10;5.72;;;;;;;13.20;62.23;100312.47;4937747;28;20058;-70
2021/11/14 03:13:31;;;;;;;17.42;5.55;;;;;;;13.17;62.30;100313.78;4941529;28;20046;-70
2021/11/14 03:16:01;;;;;;;15.95;5.10;;;;;;;13.16;62.40;100310.25;4941801;28;20476;-70
2021/11/14 03:18:27;;;;;;;18.65;5.97;;;;;;;13.26;62.21;100314.22;4941520;28;20031;-70
2021/11/14 03:20:55;;;;;;;21.88;5.90;;;;;;;13.50;61.39;100314.06;4935119;28;20166;-70
2021/11/14 03:23:23;;;;;;;19.83;5.50;;;;;;;13.50;61.48;100311.34;4934299;28;20042;-70
2021/11/14 03:25:49;;;;;;;22.88;6.03;;;;;;;13.49;61.19;100310.50;4968034;28;20043;-71
2021/11/14 03:28:16;;;;;;;19.15;5.30;;;;;;;13.57;61.06;100320.13;4932943;28;20489;-70
2021/11/14 03:30:43;;;;;;;20.50;4.72;;;;;;;13.52;61.33;100320.84;4939597;28;20134;-69
2021/11/14 03:33:12;;;;;;;18.75;5.28;;;;;;;13.48;61.15;100319.69;4921486;28;20510;-69
2021/11/14 03:35:47;;;;;;;18.27;4.90;;;;;;;13.51;61.13;100321.91;4937267;28;20043;-68
2021/11/14 03:38:13;;;;;;;15.85;4.35;;;;;;;13.16;62.35;100329.19;4934261;28;20573;-69
2021/11/14 03:40:40;;;;;;;17.70;4.05;;;;;;;13.10;62.78;100319.34;4931155;28;20039;-69
2021/11/14 03:43:06;;;;;;;11.90;3.90;;;;;;;13.46;61.50;100319.13;4934207;28;20028;-69
2021/11/14 03:45:32;;;;;;;11.63;3.65;;;;;;;13.44;61.61;100323.97;4937583;28;20090;-69
2021/11/14 03:47:58;;;;;;;12.13;3.47;;;;;;;13.20;62.13;100320.56;4934428;28;20059;-69
2021/11/14 03:50:24;;;;;;;14.15;3.55;;;;;;;13.56;61.37;100313.88;4930174;28;20110;-69
2021/11/14 03:52:50;;;;;;;12.95;4.10;;;;;;;13.57;61.21;100323.63;4929409;28;20047;-70
2021/11/14 03:55:15;;;;;;;16.70;3.70;;;;;;;13.55;61.29;100323.06;4938826;28;20444;-69
2021/11/14 03:57:43;;;;;;;11.18;3.10;;;;;;;13.41;61.47;100316.31;4936686;28;20035;-70
2021/11/14 04:00:21;;;;;;;13.90;3.88;;;;;;;13.07;63.00;100311.72;4941265;28;20393;-69
2021/11/14 04:02:48;;;;;;;11.15;3.25;;;;;;;13.21;63.02;100320.34;4925890;28;20047;-69
2021/11/14 04:05:15;;;;;;;17.80;4.43;;;;;;;13.33;62.61;100320.28;4945724;28;20038;-69
2021/11/14 04:07:40;;;;;;;15.48;3.85;;;;;;;13.50;62.36;100328.38;4931334;28;20039;-69
2021/11/14 04:10:07;;;;;;;15.02;3.92;;;;;;;13.39;62.29;100327.41;4951022;28;20097;-69
2021/11/14 04:12:32;;;;;;;16.60;4.13;;;;;;;13.45;62.13;100325.59;4934100;28;20090;-69
2021/11/14 04:14:58;;;;;;;12.30;3.85;;;;;;;13.38;62.26;100324.94;4931708;28;20620;-69
2021/11/14 04:17:24;;;;;;;12.60;3.78;;;;;;;12.97;63.93;100331.31;4943721;28;20031;-69
2021/11/14 04:19:49;;;;;;;13.18;3.45;;;;;;;13.38;62.27;100330.34;4931798;28;20647;-69
2021/11/14 04:22:15;;;;;;;14.02;3.38;;;;;;;12.83;64.12;100335.38;4934124;28;20143;-69
2021/11/14 04:24:41;;;;;;;9.23;3.92;;;;;;;13.49;62.01;100336.78;4951182;28;20470;-69
2021/11/14 04:27:07;;;;;;;13.55;3.28;;;;;;;13.38;62.38;100339.28;4937395;28;20038;-69
2021/11/14 04:29:33;;;;;;;12.88;3.50;;;;;;;13.73;61.67;100337.38;4942854;28;20048;-69
2021/11/14 04:31:58;;;;;;;12.18;3.53;;;;;;;13.86;60.75;100333.50;4935749;28;20055;-70
2021/11/14 04:34:24;;;;;;;15.65;3.17;;;;;;;13.66;61.84;100337.56;4933565;28;21166;-69
2021/11/14 04:36:49;;;;;;;16.08;3.20;;;;;;;13.52;62.16;100334.38;4940115;28;20035;-69
2021/11/14 04:39:15;;;;;;;19.60;3.75;;;;;;;13.56;61.99;100342.84;4950512;28;20027;-69
2021/11/14 04:41:40;;;;;;;16.52;3.58;;;;;;;13.26;62.71;100344.78;4936932;28;20058;-69
2021/11/14 04:44:06;;;;;;;16.48;3.08;;;;;;;13.57;61.75;100356.09;4948322;28;20035;-69
2021/11/14 04:46:31;;;;;;;16.13;3.38;;;;;;;13.44;62.30;100354.56;4926474;28;20481;-69
2021/11/14 04:48:57;;;;;;;21.95;3.70;;;;;;;13.30;62.95;100361.34;4930110;28;20043;-69
2021/11/14 04:51:23;;;;;;;14.90;2.95;;;;;;;13.29;62.67;100359.69;4936485;28;20075;-69
2021/11/14 04:53:49;;;;;;;16.88;3.60;;;;;;;13.14;63.43;100357.56;4934023;28;20031;-69
2021/11/14 04:56:16;;;;;;;16.73;3.38;;;;;;;13.01;63.48;100354.09;4941677;28;20143;-69
2021/11/14 04:58:42;;;;;;;13.98;3.65;;;;;;;13.43;62.27;100358.34;4929300;28;20065;-69
2021/11/14 05:01:08;;;;;;;17.55;4.60;;;;;;;13.01;63.47;100350.56;4940380;28;20493;-69
2021/11/14 05:03:34;;;;;;;13.25;3.85;;;;;;;13.17;63.19;100347.03;4923692;28;20044;-69
2021/11/14 05:05:59;;;;;;;15.82;3.65;;;;;;;13.08;63.21;100355.81;4924932;28;20501;-69
2021/11/14 05:08:25;;;;;;;13.15;3.72;;;;;;;13.04;63.84;100360.88;4943012;28;20625;-70
2021/11/14 05:10:52;;;;;;;12.85;4.05;;;;;;;13.32;62.79;100359.22;4939140;28;20381;-69
2021/11/14 05:13:19;;;;;;;14.13;3.70;;;;;;;13.31;62.90;100368.41;4938557;28;20493;-69
2021/11/14 05:15:45;;;;;;;14.23;3.50;;;;;;;13.13;63.52;100369.44;4938134;28;20482;-70
2021/11/14 05:18:10;;;;;;;13.88;4.25;;;;;;;12.88;64.44;100360.63;4944707;28;20075;-69
2021/11/14 05:20:37;;;;;;;14.23;3.72;;;;;;;13.32;63.39;100370.03;4957835;28;20039;-69
2021/11/14 05:23:04;;;;;;;13.95;3.30;;;;;;;13.21;63.29;100352.81;4940791;28;20044;-69
2021/11/14 05:25:30;;;;;;;15.00;4.00;;;;;;;13.14;63.42;100355.66;4948943;28;20066;-69
2021/11/14 05:27:56;;;;;;;13.40;4.15;;;;;;;13.18;63.66;100359.50;4946905;28;20043;-69
2021/11/14 05:30:21;;;;;;;15.68;3.90;;;;;;;13.40;62.73;100360.66;4936222;28;20031;-69
2021/11/14 05:32:47;;;;;;;11.73;3.50;;;;;;;13.36;63.06;100363.06;4934753;28;20450;-69
2021/11/14 05:35:15;;;;;;;18.77;4.00;;;;;;;13.40;62.83;100366.09;4930653;28;20043;-69
2021/11/14 05:37:41;;;;;;;12.32;3.33;;;;;;;13.32;63.21;100368.13;4937191;28;20137;-69
2021/11/14 05:40:08;;;;;;;18.35;3.88;;;;;;;13.22;63.70;100364.41;4936370;28;20028;-69
2021/11/14 05:42:34;;;;;;;13.38;3.88;;;;;;;13.53;62.27;100356.84;4923736;28;20387;-69
2021/11/14 05:45:00;;;;;;;19.70;3.80;;;;;;;13.39;62.99;100362.56;4934235;28;20064;-69
2021/11/14 05:47:28;;;;;;;16.95;4.18;;;;;;;13.31;63.19;100373.81;4942054;28;20028;-69
2021/11/14 05:49:54;;;;;;;11.77;3.83;;;;;;;13.45;62.92;100374.31;4929821;28;20119;-69
2021/11/14 05:52:20;;;;;;;15.35;4.20;;;;;;;13.55;62.83;100376.38;4930723;28;20043;-69
2021/11/14 05:54:45;;;;;;;18.85;4.30;;;;;;;13.66;62.55;100375.47;4924332;28;20610;-69
2021/11/14 05:57:11;;;;;;;12.43;4.05;;;;;;;13.67;62.01;100376.28;4929932;28;20058;-69
2021/11/14 06:07:05;;;;;;;17.02;4.82;;;;;;;13.67;62.58;100381.69;4938638;28;20027;-69
2021/11/14 06:09:31;;;;;;;12.27;4.10;;;;;;;13.43;63.35;100384.56;4922051;28;20035;-69
2021/11/14 06:11:57;;;;;;;16.48;4.65;;;;;;;13.61;62.70;100386.22;4935292;28;20050;-69
2021/11/14 06:14:23;;;;;;;12.13;4.00;;;;;;;13.78;62.40;100390.78;4968989;28;20036;-69
2021/11/14 06:16:49;;;;;;;12.98;4.75;;;;;;;13.38;63.79;100388.00;4928147;28;20046;-69
2021/11/14 06:19:14;;;;;;;15.48;4.55;;;;;;;13.28;64.14;100390.53;4925871;28;20062;-69
2021/11/14 06:21:40;;;;;;;25.42;5.40;;;;;;;13.69;63.29;100396.63;4940427;28;20067;-69
2021/11/14 06:24:05;;;;;;;15.15;4.47;;;;;;;13.41;63.82;100390.19;4931997;28;20118;-69
2021/11/14 06:26:32;;;;;;;17.05;4.72;;;;;;;13.83;62.60;100396.28;4935679;28;20032;-69
2021/11/14 06:28:57;;;;;;;15.10;4.10;;;;;;;13.52;63.34;100396.63;4925672;28;20035;-69
2021/11/14 06:31:22;;;;;;;16.65;4.13;;;;;;;13.78;62.66;100402.44;4928496;28;20094;-69
2021/11/14 06:33:49;;;;;;;16.73;4.63;;;;;;;13.99;61.82;100403.56;4939541;28;20032;-69
2021/11/14 06:36:15;;;;;;;18.40;5.22;;;;;;;13.87;62.10;100406.34;4929217;28;20514;-69
2021/11/14 06:38:40;;;;;;;19.02;4.13;;;;;;;13.72;62.78;100411.53;4939039;28;20125;-69
2021/11/14 06:41:06;;;;;;;11.80;4.40;;;;;;;13.61;63.21;100424.09;4929598;28;20039;-69
2021/11/14 06:43:31;;;;;;;14.48;4.35;;;;;;;13.68;62.81;100421.22;4935839;28;20508;-69
2021/11/14 06:45:57;;;;;;;19.45;4.43;;;;;;;13.97;61.72;100430.06;4929124;28;20382;-69
2021/11/14 06:48:23;;;;;;;13.30;4.80;;;;;;;13.48;63.80;100433.34;4933103;28;20508;-69
2021/11/14 06:50:48;;;;;;;15.40;3.80;;;;;;;13.41;64.10;100438.06;4939218;28;20511;-68
2021/11/14 06:53:14;;;;;;;14.85;4.47;;;;;;;13.61;63.31;100443.06;4963610;28;20033;-69
2021/11/14 06:55:39;;;;;;;17.60;5.68;;;;;;;13.95;62.26;100439.50;4931875;28;20035;-69
2021/11/14 06:58:05;;;;;;;17.23;4.82;;;;;;;13.97;62.24;100443.59;4932561;28;20552;-69
2021/11/14 07:00:31;;;;;;;19.42;4.80;;;;;;;13.93;62.08;100439.75;4937294;28;20042;-69
2021/11/14 07:02:57;;;;;;;14.95;5.05;;;;;;;13.94;62.27;100444.09;4939750;28;20043;-69
2021/11/14 07:05:22;;;;;;;21.02;5.18;;;;;;;13.75;62.76;100441.66;4946463;28;20159;-69
2021/11/14 07:07:48;;;;;;;10.45;5.05;;;;;;;13.71;62.88;100447.78;4946195;28;20533;-69
2021/11/14 07:10:16;;;;;;;16.65;5.55;;;;;;;13.57;63.70;100448.13;4938024;28;20043;-69
2021/11/14 07:12:42;;;;;;;13.60;5.50;;;;;;;13.65;63.68;100457.72;4924662;28;20040;-69
2021/11/14 07:15:10;;;;;;;16.02;4.97;;;;;;;13.87;62.74;100459.69;4950288;28;20043;-69
2021/11/14 07:17:36;;;;;;;18.33;5.38;;;;;;;13.98;62.77;100472.34;4926210;28;20028;-68
2021/11/14 07:20:03;;;;;;;16.25;5.47;;;;;;;13.97;62.93;100470.69;4951493;28;20470;-69
2021/11/14 07:22:29;;;;;;;13.25;5.10;;;;;;;14.00;63.08;100472.06;4925953;28;20043;-68
2021/11/14 07:24:54;;;;;;;12.13;4.90;;;;;;;14.13;62.22;100473.63;4944444;28;20047;-68
2021/11/14 07:27:20;;;;;;;18.05;5.53;;;;;;;14.17;61.56;100474.78;4945940;28;20038;-68
2021/11/14 07:29:47;;;;;;;16.92;5.45;;;;;;;14.11;62.02;100479.28;4929501;28;20032;-68
2021/11/14 07:32:12;;;;;;;24.25;5.72;;;;;;;14.01;62.29;100482.66;4939145;28;20122;-68
2021/11/14 07:34:38;;;;;;;14.90;5.25;;;;;;;13.98;62.60;100476.91;4934312;28;20046;-68
2021/11/14 07:37:04;;;;;;;15.95;5.93;;;;;;;13.87;62.72;100486.78;4950324;28;20070;-68
2021/11/14 07:39:30;;;;;;;10.95;5.00;;;;;;;14.04;62.50;100489.47;4937737;28;20039;-68
2021/11/14 07:41:56;;;;;;;15.55;5.82;;;;;;;14.24;61.81;100486.25;4931812;28;20032;-68
2021/11/14 07:44:23;;;;;;;16.30;6.03;;;;;;;13.98;62.31;100494.00;4932334;28;20402;-68
2021/11/14 07:46:48;;;;;;;18.42;7.05;;;;;;;14.18;62.40;100493.50;4947283;28;20035;-69
2021/11/14 07:49:15;;;;;;;16.73;5.53;;;;;;;14.28;61.43;100490.09;4944248;28;20437;-68
2021/11/14 07:51:42;;;;;;;16.50;5.95;;;;;;;14.19;61.44;100499.72;4945568;28;20131;-69
2021/11/14 07:54:08;;;;;;;14.23;5.68;;;;;;;14.33;61.62;100501.00;4947194;28;20107;-69
2021/11/14 07:56:34;;;;;;;14.75;6.10;;;;;;;14.07;62.48;100496.28;4948496;28;20123;-69
2021/11/14 07:59:00;;;;;;;14.68;6.10;;;;;;;14.33;61.87;100501.00;4933052;28;20201;-69
2021/11/14 08:01:26;;;;;;;19.75;6.47;;;;;;;14.18;62.02;100501.63;4936624;28;20529;-69
2021/11/14 08:03:52;;;;;;;14.50;6.47;;;;;;;13.89;63.35;100503.59;4600798;28;9999815;-69
2021/11/14 08:06:19;;;;;;;17.83;6.97;;;;;;;14.14;62.55;100502.34;4938158;28;20116;-69
2021/11/14 08:08:45;;;;;;;12.18;6.75;;;;;;;14.49;61.25;100495.81;4942356;28;20035;-69
2021/11/14 08:11:11;;;;;;;17.92;6.68;;;;;;;14.43;61.41;100500.34;4945156;28;20055;-68
2021/11/14 08:13:36;;;;;;;15.40;6.65;;;;;;;14.29;62.07;100504.50;4945547;28;20202;-69
2021/11/14 08:16:02;;;;;;;16.60;6.38;;;;;;;14.31;62.38;100505.88;4921116;28;20504;-70
2021/11/14 08:18:27;;;;;;;13.60;6.30;;;;;;;14.42;61.94;100500.59;4931930;28;20035;-70
2021/11/14 08:20:53;;;;;;;15.27;6.20;;;;;;;14.54;61.44;100504.00;4948076;28;20039;-70
2021/11/14 08:23:20;;;;;;;14.30;5.50;;;;;;;14.68;60.93;100504.47;4951343;28;20043;-71
2021/11/14 08:25:47;;;;;;;18.48;6.32;;;;;;;14.74;61.04;100510.81;4937220;28;20039;-68
2021/11/14 08:28:14;;;;;;;15.57;6.03;;;;;;;14.73;60.71;100509.16;4935229;28;20043;-72
2021/11/14 08:30:41;;;;;;;18.20;6.45;;;;;;;14.47;61.46;100514.22;4927809;28;20557;-73
2021/11/14 08:33:08;;;;;;;16.48;6.60;;;;;;;14.42;61.45;100517.69;4947999;28;20035;-70
2021/11/14 08:35:34;;;;;;;13.52;6.05;;;;;;;14.65;61.05;100518.53;4928232;28;20117;-69
2021/11/14 08:38:01;;;;;;;13.55;6.30;;;;;;;14.40;61.91;100521.69;4929063;28;20105;-69
2021/11/14 08:40:29;;;;;;;15.25;6.80;;;;;;;14.58;61.35;100523.31;4933469;28;20043;-68
2021/11/14 08:42:57;;;;;;;13.25;6.40;;;;;;;14.52;61.36;100522.41;4933826;28;20036;-69
2021/11/14 08:45:24;;;;;;;17.40;7.63;;;;;;;14.26;62.32;100527.47;4945698;28;20028;-69
2021/11/14 08:47:50;;;;;;;15.52;9.00;;;;;;;14.04;63.57;100532.81;4927772;28;20544;-70
2021/11/14 08:50:16;;;;;;;23.38;9.13;;;;;;;14.10;63.26;100531.00;4946559;28;20555;-70
2021/11/14 08:52:46;;;;;;;19.00;9.98;;;;;;;14.20;63.42;100525.75;4934208;28;20054;-69
2021/11/14 08:55:16;;;;;;;27.23;10.63;;;;;;;14.18;63.54;100541.44;4933488;28;20040;-67
2021/11/14 08:57:42;;;;;;;21.60;10.85;;;;;;;14.43;63.47;100541.00;4928059;28;20092;-67
2021/11/14 09:00:09;;;;;;;31.08;12.23;;;;;;;14.30;64.27;100546.78;4941203;28;20537;-67
2021/11/14 09:02:34;;;;;;;31.48;12.15;;;;;;;14.32;63.96;100536.50;4932087;28;20150;-67
2021/11/14 09:05:00;;;;;;;23.30;12.27;;;;;;;14.26;64.57;100532.06;4951067;28;20042;-67
2021/11/14 09:07:25;;;;;;;24.85;12.15;;;;;;;14.28;64.29;100538.06;4928558;28;20039;-66
2021/11/14 09:09:51;;;;;;;33.17;13.20;;;;;;;14.12;65.31;100539.72;4928768;28;20051;-69
2021/11/14 09:12:19;;;;;;;28.20;13.32;;;;;;;13.98;65.51;100541.91;4920292;28;20051;-72
2021/11/14 09:14:44;;;;;;;26.45;13.23;;;;;;;14.34;64.77;100540.59;4938903;28;20032;-70
2021/11/14 09:17:10;;;;;;;34.83;13.98;;;;;;;14.28;65.24;100547.00;4934052;28;20042;-71
2021/11/14 09:19:35;;;;;;;36.10;13.93;;;;;;;14.13;66.32;100552.19;4942745;28;20046;-73
2021/11/14 09:22:01;;;;;;;37.03;15.50;;;;;;;14.28;66.07;100552.44;4926444;28;20035;-71
2021/11/14 09:24:27;;;;;;;36.13;15.68;;;;;;;14.27;66.38;100564.34;4941692;28;20409;-71
2021/11/14 09:26:52;;;;;;;41.50;15.90;;;;;;;14.55;65.48;100559.88;4944076;28;20036;-71
2021/11/14 09:29:18;;;;;;;51.08;16.83;;;;;;;14.43;65.98;100569.97;4923930;28;20452;-71
2021/11/14 09:31:44;;;;;;;36.67;16.70;;;;;;;14.49;66.12;100572.53;4958151;28;20093;-73
2021/11/14 09:34:11;;;;;;;47.92;16.50;;;;;;;14.32;66.70;100569.81;4914681;28;20086;-73
2021/11/14 09:36:38;;;;;;;40.33;15.98;;;;;;;14.44;66.01;100571.63;4937346;28;20118;-72
2021/11/14 09:39:12;;;;;;;42.72;15.80;;;;;;;14.44;66.10;100572.47;4937757;28;20031;-73
2021/11/14 09:41:46;;;;;;;38.22;14.80;;;;;;;14.29;66.15;100580.34;4929125;28;20035;-72
2021/11/14 09:44:14;;;;;;;;;;;;;;;14.32;66.50;100577.97;4933947;28;20043;-73
2021/11/14 09:46:45;;;;;;;35.42;13.55;;;;;;;14.66;65.30;100573.56;4926702;28;19926;-72
2021/11/14 09:49:11;;;;;;;41.90;15.07;;;;;;;14.78;64.88;100582.44;4935025;28;20039;-72
2021/11/14 09:51:37;;;;;;;39.25;15.35;;;;;;;14.64;65.52;100582.75;4944681;28;20274;-73
2021/11/14 09:54:03;;;;;;;39.22;15.27;;;;;;;14.71;65.51;100587.22;4929590;28;20058;-72
2021/11/14 09:56:29;;;;;;;43.42;16.52;;;;;;;14.37;66.40;100592.66;4932096;28;20031;-74
2021/11/14 09:58:54;;;;;;;35.78;15.52;;;;;;;14.32;67.20;100585.28;4936289;28;20071;-74
2021/11/14 10:01:20;;;;;;;38.30;16.05;;;;;;;14.80;65.25;100584.91;4950670;28;20469;-74
2021/11/14 10:03:46;;;;;;;38.08;15.75;;;;;;;14.64;65.70;100590.09;4956672;28;20042;-74
2021/11/14 10:06:11;;;;;;;55.53;17.13;;;;;;;14.51;66.67;100593.16;4940568;28;20032;-74
2021/11/14 10:08:42;;;;;;;41.10;16.88;;;;;;;14.44;66.96;100587.88;4934191;28;20046;-75
2021/11/14 10:11:08;;;;;;;42.70;17.67;;;;;;;14.58;66.36;100591.91;4934132;28;20036;-74
2021/11/14 10:13:36;;;;;;;43.40;17.52;;;;;;;14.75;65.64;100591.91;4969139;28;20540;-75
2021/11/14 10:16:14;;;;;;;39.72;17.58;;;;;;;14.84;65.12;100591.47;4934341;28;20082;-75
2021/11/14 10:18:45;;;;;;;53.05;18.90;;;;;;;14.70;65.82;100599.97;4947254;28;20118;-76
2021/11/14 10:21:12;;;;;;;44.35;18.75;;;;;;;14.56;66.43;100599.47;4936542;28;20113;-76
2021/11/14 10:23:38;;;;;;;50.83;20.10;;;;;;;14.79;65.51;100594.94;4939891;28;20121;-75
2021/11/14 10:26:07;;;;;;;56.00;20.30;;;;;;;14.91;65.49;100597.53;4942305;28;20146;-76
2021/11/14 10:28:34;;;;;;;46.33;19.70;;;;;;;14.98;65.09;100600.91;4934393;28;20057;-78
2021/11/14 10:31:01;;;;;;;52.15;18.73;;;;;;;15.04;64.85;100605.31;4928286;28;20451;-75
2021/11/14 10:33:27;;;;;;;62.72;20.80;;;;;;;15.03;64.90;100608.31;4926298;28;20076;-74
2021/11/14 10:35:55;;;;;;;62.33;20.85;;;;;;;14.91;65.56;100605.69;4954499;28;20042;-75
2021/11/14 10:38:27;;;;;;;61.97;20.75;;;;;;;15.14;65.03;100610.06;4932039;28;20777;-76
2021/11/14 10:40:59;;;;;;;50.22;20.92;;;;;;;15.19;64.29;100610.13;4931319;28;20035;-75
2021/11/14 10:43:25;;;;;;;60.10;20.70;;;;;;;15.06;64.58;100613.22;4935281;28;20074;-76
2021/11/14 10:45:53;;;;;;;73.78;24.70;;;;;;;14.87;65.70;100618.91;4936724;28;20571;-76
2021/11/14 10:48:21;;;;;;;59.85;23.63;;;;;;;15.08;65.28;100620.03;4929899;28;20121;-75
2021/11/14 10:51:00;;;;;;;79.28;24.15;;;;;;;14.84;65.93;100613.97;4935579;28;20039;-74
2021/11/14 10:53:31;;;;;;;97.45;31.25;;;;;;;14.90;66.54;100612.19;4932861;28;20038;-78
2021/11/14 10:56:00;;;;;;;58.60;26.20;;;;;;;14.92;66.44;100623.59;4937103;28;20035;-79
2021/11/14 10:58:28;;;;;;;68.55;27.65;;;;;;;15.26;65.11;100623.50;4948167;28;20138;-75
2021/11/14 11:00:59;;;;;;;67.57;25.20;;;;;;;15.39;64.22;100619.59;4936543;28;20760;-75
2021/11/14 11:03:51;;;;;;;57.13;25.10;;;;;;;15.58;63.97;100624.69;4935846;28;20027;-75
2021/11/14 11:06:28;;;;;;;52.40;25.63;;;;;;;15.50;63.96;100623.22;4933390;28;20035;-75
2021/11/14 11:09:02;;;;;;;60.90;25.65;;;;;;;15.31;64.22;100628.19;4937149;28;20047;-76
2021/11/14 11:11:28;;;;;;;60.97;25.33;;;;;;;15.33;64.27;100629.56;4935605;28;20725;-76
2021/11/14 11:13:55;;;;;;;52.17;25.02;;;;;;;15.59;63.57;100616.28;4938932;28;20045;-75
2021/11/14 11:16:26;;;;;;;56.88;25.00;;;;;;;15.74;62.99;100615.63;4938197;28;20039;-75
2021/11/14 11:18:58;;;;;;;53.25;23.52;;;;;;;15.92;62.14;100625.38;4933032;28;20059;-75
2021/11/14 11:21:30;;;;;;;56.70;23.85;;;;;;;15.88;62.72;100626.13;4945411;28;20039;-75
2021/11/14 11:24:09;;;;;;;55.67;24.80;;;;;;;15.95;62.61;100626.72;4931972;28;20027;-74